sensor_id;sensor_type;location;lat;lon;timestamp;P1;durP1;ratioP1;P2;durP2;ratioP2
8044;SDS011;4065;48.754;9.982;2023-01-23T00:00:59;46.75;;;27.23;;
8044;SDS011;4065;48.754;9.982;2023-01-23T00:04:04;44.95;;;26.52;;
8044;SDS011;4065;48.754;9.982;2023-01-23T00:07:06;44.22;;;27.98;;
8044;SDS011;4065;48.754;9.982;2023-01-23T00:10:08;54.08;;;30.70;;
8044;SDS011;4065;48.754;9.982;2023-01-23T00:13:11;56.92;;;30.33;;
8044;SDS011;4065;48.754;9.982;2023-01-23T00:16:14;53.97;;;29.30;;
8044;SDS011;4065;48.754;9.982;2023-01-23T00:19:17;68.85;;;29.55;;
8044;SDS011;4065;48.754;9.982;2023-01-23T00:22:19;61.33;;;29.30;;
8044;SDS011;4065;48.754;9.982;2023-01-23T00:25:20;124.05;;;33.13;;
8044;SDS011;4065;48.754;9.982;2023-01-23T00:28:22;54.65;;;28.10;;
8044;SDS011;4065;48.754;9.982;2023-01-23T00:31:25;54.67;;;29.75;;
8044;SDS011;4065;48.754;9.982;2023-01-23T00:34:29;54.60;;;31.35;;
8044;SDS011;4065;48.754;9.982;2023-01-23T00:37:31;51.92;;;28.92;;
8044;SDS011;4065;48.754;9.982;2023-01-23T00:40:32;48.88;;;27.27;;
8044;SDS011;4065;48.754;9.982;2023-01-23T00:43:34;36.03;;;22.80;;
8044;SDS011;4065;48.754;9.982;2023-01-23T00:46:35;48.63;;;28.08;;
8044;SDS011;4065;48.754;9.982;2023-01-23T00:49:38;44.47;;;25.65;;
8044;SDS011;4065;48.754;9.982;2023-01-23T00:52:40;38.88;;;24.77;;
8044;SDS011;4065;48.754;9.982;2023-01-23T00:55:41;39.33;;;24.20;;
8044;SDS011;4065;48.754;9.982;2023-01-23T00:58:43;27.80;;;17.98;;
8044;SDS011;4065;48.754;9.982;2023-01-23T01:01:44;38.15;;;23.38;;
8044;SDS011;4065;48.754;9.982;2023-01-23T01:04:47;35.53;;;22.73;;
8044;SDS011;4065;48.754;9.982;2023-01-23T01:07:49;26.67;;;17.83;;
8044;SDS011;4065;48.754;9.982;2023-01-23T01:10:50;38.60;;;23.08;;
8044;SDS011;4065;48.754;9.982;2023-01-23T01:13:52;37.58;;;22.50;;
8044;SDS011;4065;48.754;9.982;2023-01-23T01:16:53;28.48;;;19.25;;
8044;SDS011;4065;48.754;9.982;2023-01-23T01:19:56;31.85;;;21.17;;
8044;SDS011;4065;48.754;9.982;2023-01-23T01:22:58;32.63;;;19.75;;
8044;SDS011;4065;48.754;9.982;2023-01-23T01:26:00;34.78;;;21.48;;
8044;SDS011;4065;48.754;9.982;2023-01-23T01:29:02;25.10;;;17.10;;
8044;SDS011;4065;48.754;9.982;2023-01-23T01:32:04;32.70;;;21.35;;
8044;SDS011;4065;48.754;9.982;2023-01-23T01:35:07;25.13;;;17.55;;
8044;SDS011;4065;48.754;9.982;2023-01-23T01:38:10;34.28;;;20.15;;
8044;SDS011;4065;48.754;9.982;2023-01-23T01:41:11;30.30;;;19.45;;
8044;SDS011;4065;48.754;9.982;2023-01-23T01:44:14;31.67;;;20.90;;
8044;SDS011;4065;48.754;9.982;2023-01-23T01:47:17;27.63;;;18.20;;
8044;SDS011;4065;48.754;9.982;2023-01-23T01:50:20;30.85;;;19.55;;
8044;SDS011;4065;48.754;9.982;2023-01-23T01:53:22;22.75;;;15.57;;
8044;SDS011;4065;48.754;9.982;2023-01-23T01:56:29;29.33;;;19.27;;
8044;SDS011;4065;48.754;9.982;2023-01-23T01:59:33;28.33;;;19.60;;
8044;SDS011;4065;48.754;9.982;2023-01-23T02:02:38;29.15;;;19.10;;
8044;SDS011;4065;48.754;9.982;2023-01-23T02:05:45;28.35;;;18.90;;
8044;SDS011;4065;48.754;9.982;2023-01-23T02:08:50;31.30;;;20.05;;
8044;SDS011;4065;48.754;9.982;2023-01-23T02:11:53;27.17;;;19.17;;
8044;SDS011;4065;48.754;9.982;2023-01-23T02:14:55;28.50;;;19.80;;
8044;SDS011;4065;48.754;9.982;2023-01-23T02:17:57;30.90;;;19.33;;
8044;SDS011;4065;48.754;9.982;2023-01-23T02:21:00;28.98;;;18.50;;
8044;SDS011;4065;48.754;9.982;2023-01-23T02:24:15;30.10;;;20.08;;
8044;SDS011;4065;48.754;9.982;2023-01-23T02:27:20;25.05;;;17.05;;
8044;SDS011;4065;48.754;9.982;2023-01-23T02:30:21;35.10;;;21.25;;
8044;SDS011;4065;48.754;9.982;2023-01-23T02:33:46;31.65;;;19.38;;
8044;SDS011;4065;48.754;9.982;2023-01-23T02:36:50;33.80;;;20.33;;
8044;SDS011;4065;48.754;9.982;2023-01-23T02:39:51;35.08;;;21.63;;
8044;SDS011;4065;48.754;9.982;2023-01-23T02:42:54;30.23;;;19.70;;
8044;SDS011;4065;48.754;9.982;2023-01-23T02:45:56;32.35;;;20.45;;
8044;SDS011;4065;48.754;9.982;2023-01-23T02:48:58;29.92;;;18.40;;
8044;SDS011;4065;48.754;9.982;2023-01-23T02:51:59;32.05;;;20.33;;
8044;SDS011;4065;48.754;9.982;2023-01-23T02:55:02;30.33;;;19.00;;
8044;SDS011;4065;48.754;9.982;2023-01-23T02:58:05;31.23;;;19.23;;
8044;SDS011;4065;48.754;9.982;2023-01-23T03:01:21;30.15;;;19.33;;
8044;SDS011;4065;48.754;9.982;2023-01-23T03:04:24;34.83;;;20.60;;
8044;SDS011;4065;48.754;9.982;2023-01-23T03:07:26;35.22;;;21.60;;
8044;SDS011;4065;48.754;9.982;2023-01-23T03:10:27;32.70;;;19.10;;
8044;SDS011;4065;48.754;9.982;2023-01-23T03:13:33;32.83;;;19.65;;
8044;SDS011;4065;48.754;9.982;2023-01-23T03:16:35;28.95;;;19.02;;
8044;SDS011;4065;48.754;9.982;2023-01-23T03:19:36;30.90;;;18.77;;
8044;SDS011;4065;48.754;9.982;2023-01-23T03:22:38;27.63;;;19.10;;
8044;SDS011;4065;48.754;9.982;2023-01-23T03:25:41;28.27;;;17.95;;
8044;SDS011;4065;48.754;9.982;2023-01-23T03:28:44;32.03;;;19.63;;
8044;SDS011;4065;48.754;9.982;2023-01-23T03:32:04;27.25;;;18.45;;
8044;SDS011;4065;48.754;9.982;2023-01-23T03:35:06;30.60;;;20.20;;
8044;SDS011;4065;48.754;9.982;2023-01-23T03:38:12;28.02;;;18.20;;
8044;SDS011;4065;48.754;9.982;2023-01-23T03:41:17;29.15;;;19.45;;
8044;SDS011;4065;48.754;9.982;2023-01-23T03:44:27;22.63;;;15.48;;
8044;SDS011;4065;48.754;9.982;2023-01-23T03:47:29;21.42;;;15.55;;
8044;SDS011;4065;48.754;9.982;2023-01-23T03:50:30;27.50;;;17.13;;
8044;SDS011;4065;48.754;9.982;2023-01-23T03:53:32;23.58;;;16.02;;
8044;SDS011;4065;48.754;9.982;2023-01-23T03:56:33;22.63;;;16.38;;
8044;SDS011;4065;48.754;9.982;2023-01-23T03:59:36;19.08;;;13.50;;
8044;SDS011;4065;48.754;9.982;2023-01-23T04:02:38;26.88;;;17.55;;
8044;SDS011;4065;48.754;9.982;2023-01-23T04:05:40;28.35;;;19.45;;
8044;SDS011;4065;48.754;9.982;2023-01-23T04:08:41;25.17;;;17.42;;
8044;SDS011;4065;48.754;9.982;2023-01-23T04:11:43;24.60;;;16.67;;
8044;SDS011;4065;48.754;9.982;2023-01-23T04:14:46;30.25;;;18.88;;
8044;SDS011;4065;48.754;9.982;2023-01-23T04:17:47;33.72;;;21.33;;
8044;SDS011;4065;48.754;9.982;2023-01-23T04:20:49;33.47;;;20.85;;
8044;SDS011;4065;48.754;9.982;2023-01-23T04:23:51;29.63;;;19.25;;
8044;SDS011;4065;48.754;9.982;2023-01-23T04:26:52;24.33;;;15.68;;
8044;SDS011;4065;48.754;9.982;2023-01-23T04:29:55;29.73;;;19.33;;
8044;SDS011;4065;48.754;9.982;2023-01-23T04:32:58;29.45;;;19.75;;
8044;SDS011;4065;48.754;9.982;2023-01-23T04:36:00;29.13;;;19.33;;
8044;SDS011;4065;48.754;9.982;2023-01-23T04:39:03;30.25;;;18.13;;
8044;SDS011;4065;48.754;9.982;2023-01-23T04:42:05;24.40;;;17.02;;
8044;SDS011;4065;48.754;9.982;2023-01-23T04:45:08;25.83;;;17.58;;
8044;SDS011;4065;48.754;9.982;2023-01-23T04:48:10;29.20;;;19.08;;
8044;SDS011;4065;48.754;9.982;2023-01-23T04:51:13;26.17;;;18.05;;
8044;SDS011;4065;48.754;9.982;2023-01-23T04:54:15;23.50;;;15.65;;
8044;SDS011;4065;48.754;9.982;2023-01-23T04:57:17;27.88;;;17.38;;
8044;SDS011;4065;48.754;9.982;2023-01-23T05:00:20;19.27;;;13.63;;
8044;SDS011;4065;48.754;9.982;2023-01-23T05:03:22;23.35;;;16.10;;
8044;SDS011;4065;48.754;9.982;2023-01-23T05:06:23;21.35;;;14.15;;
8044;SDS011;4065;48.754;9.982;2023-01-23T05:09:25;25.67;;;16.23;;
8044;SDS011;4065;48.754;9.982;2023-01-23T05:12:26;20.15;;;14.82;;
8044;SDS011;4065;48.754;9.982;2023-01-23T05:15:29;23.20;;;16.20;;
8044;SDS011;4065;48.754;9.982;2023-01-23T05:18:31;18.83;;;13.60;;
8044;SDS011;4065;48.754;9.982;2023-01-23T05:21:32;29.20;;;19.30;;
8044;SDS011;4065;48.754;9.982;2023-01-23T05:24:34;20.35;;;14.85;;
8044;SDS011;4065;48.754;9.982;2023-01-23T05:27:36;26.90;;;16.98;;
8044;SDS011;4065;48.754;9.982;2023-01-23T05:30:39;25.23;;;15.60;;
8044;SDS011;4065;48.754;9.982;2023-01-23T05:33:40;28.02;;;17.88;;
8044;SDS011;4065;48.754;9.982;2023-01-23T05:36:42;20.08;;;14.20;;
8044;SDS011;4065;48.754;9.982;2023-01-23T05:39:44;28.27;;;17.77;;
8044;SDS011;4065;48.754;9.982;2023-01-23T05:42:45;27.58;;;17.52;;
8044;SDS011;4065;48.754;9.982;2023-01-23T05:45:48;26.73;;;17.30;;
8044;SDS011;4065;48.754;9.982;2023-01-23T05:48:50;28.13;;;17.20;;
8044;SDS011;4065;48.754;9.982;2023-01-23T05:51:52;24.25;;;16.35;;
8044;SDS011;4065;48.754;9.982;2023-01-23T05:54:54;25.13;;;16.10;;
8044;SDS011;4065;48.754;9.982;2023-01-23T05:57:56;23.55;;;17.48;;
8044;SDS011;4065;48.754;9.982;2023-01-23T06:01:02;24.92;;;16.58;;
8044;SDS011;4065;48.754;9.982;2023-01-23T06:04:03;24.45;;;16.27;;
8044;SDS011;4065;48.754;9.982;2023-01-23T06:07:06;18.50;;;13.95;;
8044;SDS011;4065;48.754;9.982;2023-01-23T06:10:08;22.33;;;15.45;;
8044;SDS011;4065;48.754;9.982;2023-01-23T06:13:10;24.35;;;15.18;;
8044;SDS011;4065;48.754;9.982;2023-01-23T06:16:13;23.75;;;16.10;;
8044;SDS011;4065;48.754;9.982;2023-01-23T06:19:14;24.70;;;17.17;;
8044;SDS011;4065;48.754;9.982;2023-01-23T06:22:16;19.25;;;13.88;;
8044;SDS011;4065;48.754;9.982;2023-01-23T06:25:18;26.63;;;17.08;;
8044;SDS011;4065;48.754;9.982;2023-01-23T06:28:21;27.65;;;17.98;;
8044;SDS011;4065;48.754;9.982;2023-01-23T06:31:24;28.85;;;18.17;;
8044;SDS011;4065;48.754;9.982;2023-01-23T06:34:25;32.65;;;19.50;;
8044;SDS011;4065;48.754;9.982;2023-01-23T06:37:27;28.23;;;17.38;;
8044;SDS011;4065;48.754;9.982;2023-01-23T06:40:28;31.75;;;19.85;;
8044;SDS011;4065;48.754;9.982;2023-01-23T06:43:30;31.30;;;20.05;;
8044;SDS011;4065;48.754;9.982;2023-01-23T06:46:33;34.05;;;20.45;;
8044;SDS011;4065;48.754;9.982;2023-01-23T06:49:37;23.60;;;16.35;;
8044;SDS011;4065;48.754;9.982;2023-01-23T06:52:39;31.55;;;19.30;;
8044;SDS011;4065;48.754;9.982;2023-01-23T06:55:40;33.15;;;18.52;;
8044;SDS011;4065;48.754;9.982;2023-01-23T06:58:42;28.38;;;18.05;;
8044;SDS011;4065;48.754;9.982;2023-01-23T07:01:46;24.52;;;16.38;;
8044;SDS011;4065;48.754;9.982;2023-01-23T07:04:48;31.95;;;20.27;;
8044;SDS011;4065;48.754;9.982;2023-01-23T07:07:49;30.70;;;19.52;;
8044;SDS011;4065;48.754;9.982;2023-01-23T07:10:51;28.30;;;18.65;;
8044;SDS011;4065;48.754;9.982;2023-01-23T07:13:58;28.30;;;18.52;;
8044;SDS011;4065;48.754;9.982;2023-01-23T07:17:01;28.08;;;18.63;;
8044;SDS011;4065;48.754;9.982;2023-01-23T07:20:03;29.63;;;18.95;;
8044;SDS011;4065;48.754;9.982;2023-01-23T07:23:05;25.63;;;17.40;;
8044;SDS011;4065;48.754;9.982;2023-01-23T07:26:07;27.58;;;18.67;;
8044;SDS011;4065;48.754;9.982;2023-01-23T07:29:10;24.83;;;15.77;;
8044;SDS011;4065;48.754;9.982;2023-01-23T07:32:14;25.77;;;17.63;;
8044;SDS011;4065;48.754;9.982;2023-01-23T07:35:16;26.98;;;17.80;;
8044;SDS011;4065;48.754;9.982;2023-01-23T07:38:18;24.17;;;16.63;;
8044;SDS011;4065;48.754;9.982;2023-01-23T07:41:19;25.10;;;16.98;;
8044;SDS011;4065;48.754;9.982;2023-01-23T07:44:21;23.38;;;15.55;;
8044;SDS011;4065;48.754;9.982;2023-01-23T07:47:24;25.95;;;17.52;;
8044;SDS011;4065;48.754;9.982;2023-01-23T07:50:26;23.23;;;15.70;;
8044;SDS011;4065;48.754;9.982;2023-01-23T07:53:28;25.25;;;16.77;;
8044;SDS011;4065;48.754;9.982;2023-01-23T07:56:29;23.45;;;16.17;;
8044;SDS011;4065;48.754;9.982;2023-01-23T07:59:31;24.35;;;15.48;;
8044;SDS011;4065;48.754;9.982;2023-01-23T08:02:34;25.35;;;17.00;;
8044;SDS011;4065;48.754;9.982;2023-01-23T08:05:36;24.77;;;17.75;;
8044;SDS011;4065;48.754;9.982;2023-01-23T08:08:41;27.85;;;17.25;;
8044;SDS011;4065;48.754;9.982;2023-01-23T08:11:42;25.45;;;17.05;;
8044;SDS011;4065;48.754;9.982;2023-01-23T08:14:45;31.38;;;19.30;;
8044;SDS011;4065;48.754;9.982;2023-01-23T08:17:48;23.85;;;17.02;;
8044;SDS011;4065;48.754;9.982;2023-01-23T08:20:53;32.70;;;20.75;;
8044;SDS011;4065;48.754;9.982;2023-01-23T08:23:59;27.02;;;18.80;;
8044;SDS011;4065;48.754;9.982;2023-01-23T08:27:01;24.27;;;16.95;;
8044;SDS011;4065;48.754;9.982;2023-01-23T08:30:03;25.50;;;17.80;;
8044;SDS011;4065;48.754;9.982;2023-01-23T08:33:07;29.67;;;18.83;;
8044;SDS011;4065;48.754;9.982;2023-01-23T08:36:10;30.20;;;20.08;;
8044;SDS011;4065;48.754;9.982;2023-01-23T08:39:12;25.80;;;18.15;;
8044;SDS011;4065;48.754;9.982;2023-01-23T08:42:14;27.05;;;17.50;;
8044;SDS011;4065;48.754;9.982;2023-01-23T08:45:15;25.63;;;17.70;;
8044;SDS011;4065;48.754;9.982;2023-01-23T08:48:18;27.75;;;18.42;;
8044;SDS011;4065;48.754;9.982;2023-01-23T08:51:21;26.58;;;17.70;;
8044;SDS011;4065;48.754;9.982;2023-01-23T08:54:22;23.88;;;15.82;;
8044;SDS011;4065;48.754;9.982;2023-01-23T08:57:24;21.02;;;15.95;;
8044;SDS011;4065;48.754;9.982;2023-01-23T09:00:26;18.02;;;13.55;;
8044;SDS011;4065;48.754;9.982;2023-01-23T09:03:29;21.33;;;16.48;;
8044;SDS011;4065;48.754;9.982;2023-01-23T09:06:31;23.50;;;16.80;;
8044;SDS011;4065;48.754;9.982;2023-01-23T09:09:34;21.92;;;15.80;;
8044;SDS011;4065;48.754;9.982;2023-01-23T09:12:36;22.33;;;15.98;;
8044;SDS011;4065;48.754;9.982;2023-01-23T09:15:38;24.08;;;16.83;;
8044;SDS011;4065;48.754;9.982;2023-01-23T09:18:41;25.65;;;16.52;;
8044;SDS011;4065;48.754;9.982;2023-01-23T09:21:47;26.63;;;17.35;;
8044;SDS011;4065;48.754;9.982;2023-01-23T09:24:49;27.88;;;18.20;;
8044;SDS011;4065;48.754;9.982;2023-01-23T09:27:50;22.40;;;15.20;;
8044;SDS011;4065;48.754;9.982;2023-01-23T09:30:52;25.33;;;17.17;;
8044;SDS011;4065;48.754;9.982;2023-01-23T09:33:55;25.75;;;18.13;;
8044;SDS011;4065;48.754;9.982;2023-01-23T09:36:56;31.30;;;19.60;;
8044;SDS011;4065;48.754;9.982;2023-01-23T09:39:58;26.38;;;18.33;;
8044;SDS011;4065;48.754;9.982;2023-01-23T09:43:01;30.80;;;19.27;;
8044;SDS011;4065;48.754;9.982;2023-01-23T09:46:06;27.65;;;18.83;;
8044;SDS011;4065;48.754;9.982;2023-01-23T09:49:18;27.17;;;17.48;;
8044;SDS011;4065;48.754;9.982;2023-01-23T09:52:23;31.15;;;19.48;;
8044;SDS011;4065;48.754;9.982;2023-01-23T09:55:32;27.95;;;18.15;;
8044;SDS011;4065;48.754;9.982;2023-01-23T09:58:38;28.50;;;17.08;;
8044;SDS011;4065;48.754;9.982;2023-01-23T10:01:42;27.63;;;18.17;;
8044;SDS011;4065;48.754;9.982;2023-01-23T10:04:45;30.67;;;19.40;;
8044;SDS011;4065;48.754;9.982;2023-01-23T10:07:51;30.27;;;19.48;;
8044;SDS011;4065;48.754;9.982;2023-01-23T10:10:59;30.10;;;19.40;;
8044;SDS011;4065;48.754;9.982;2023-01-23T10:14:08;27.58;;;19.50;;
8044;SDS011;4065;48.754;9.982;2023-01-23T10:17:21;31.40;;;19.83;;
8044;SDS011;4065;48.754;9.982;2023-01-23T10:20:32;27.80;;;18.52;;
8044;SDS011;4065;48.754;9.982;2023-01-23T10:23:48;28.02;;;18.33;;
8044;SDS011;4065;48.754;9.982;2023-01-23T10:26:58;30.17;;;17.85;;
8044;SDS011;4065;48.754;9.982;2023-01-23T10:30:03;26.98;;;18.00;;
8044;SDS011;4065;48.754;9.982;2023-01-23T10:33:14;26.23;;;17.75;;
8044;SDS011;4065;48.754;9.982;2023-01-23T10:36:19;29.33;;;18.20;;
8044;SDS011;4065;48.754;9.982;2023-01-23T10:39:24;27.85;;;17.58;;
8044;SDS011;4065;48.754;9.982;2023-01-23T10:42:27;23.15;;;16.80;;
8044;SDS011;4065;48.754;9.982;2023-01-23T10:45:29;24.60;;;16.48;;
8044;SDS011;4065;48.754;9.982;2023-01-23T10:48:38;23.23;;;17.63;;
8044;SDS011;4065;48.754;9.982;2023-01-23T10:51:46;23.80;;;15.55;;
8044;SDS011;4065;48.754;9.982;2023-01-23T10:54:47;24.88;;;16.20;;
8044;SDS011;4065;48.754;9.982;2023-01-23T10:57:52;22.02;;;15.52;;
8044;SDS011;4065;48.754;9.982;2023-01-23T11:00:55;23.70;;;16.25;;
8044;SDS011;4065;48.754;9.982;2023-01-23T11:03:56;21.50;;;15.75;;
8044;SDS011;4065;48.754;9.982;2023-01-23T11:07:12;23.38;;;16.20;;
8044;SDS011;4065;48.754;9.982;2023-01-23T11:10:19;21.90;;;14.25;;
8044;SDS011;4065;48.754;9.982;2023-01-23T11:13:25;23.73;;;15.75;;
8044;SDS011;4065;48.754;9.982;2023-01-23T11:16:28;26.98;;;17.15;;
8044;SDS011;4065;48.754;9.982;2023-01-23T11:19:30;26.92;;;17.77;;
8044;SDS011;4065;48.754;9.982;2023-01-23T11:22:35;24.85;;;16.13;;
8044;SDS011;4065;48.754;9.982;2023-01-23T11:25:38;23.77;;;16.90;;
8044;SDS011;4065;48.754;9.982;2023-01-23T11:28:45;26.45;;;17.83;;
8044;SDS011;4065;48.754;9.982;2023-01-23T11:31:48;22.45;;;16.65;;
8044;SDS011;4065;48.754;9.982;2023-01-23T11:35:05;20.75;;;15.23;;
8044;SDS011;4065;48.754;9.982;2023-01-23T11:38:14;25.35;;;16.50;;
8044;SDS011;4065;48.754;9.982;2023-01-23T11:41:17;26.38;;;17.35;;
8044;SDS011;4065;48.754;9.982;2023-01-23T11:44:20;25.73;;;16.80;;
8044;SDS011;4065;48.754;9.982;2023-01-23T11:50:45;20.20;;;15.00;;
8044;SDS011;4065;48.754;9.982;2023-01-23T11:53:56;21.25;;;14.98;;
8044;SDS011;4065;48.754;9.982;2023-01-23T11:57:06;26.15;;;16.25;;
8044;SDS011;4065;48.754;9.982;2023-01-23T12:00:22;21.40;;;14.93;;
8044;SDS011;4065;48.754;9.982;2023-01-23T12:03:34;21.05;;;14.70;;
8044;SDS011;4065;48.754;9.982;2023-01-23T12:07:05;22.73;;;15.75;;
8044;SDS011;4065;48.754;9.982;2023-01-23T12:10:15;21.25;;;15.38;;
8044;SDS011;4065;48.754;9.982;2023-01-23T12:13:27;20.58;;;14.32;;
8044;SDS011;4065;48.754;9.982;2023-01-23T12:16:43;21.42;;;15.77;;
8044;SDS011;4065;48.754;9.982;2023-01-23T12:19:58;24.83;;;15.80;;
8044;SDS011;4065;48.754;9.982;2023-01-23T12:23:07;23.40;;;16.15;;
8044;SDS011;4065;48.754;9.982;2023-01-23T12:26:18;21.98;;;15.02;;
8044;SDS011;4065;48.754;9.982;2023-01-23T12:29:27;23.85;;;16.95;;
8044;SDS011;4065;48.754;9.982;2023-01-23T12:32:43;24.08;;;16.38;;
8044;SDS011;4065;48.754;9.982;2023-01-23T12:35:55;25.88;;;17.33;;
8044;SDS011;4065;48.754;9.982;2023-01-23T12:39:02;23.35;;;16.67;;
8044;SDS011;4065;48.754;9.982;2023-01-23T12:42:12;25.92;;;17.48;;
8044;SDS011;4065;48.754;9.982;2023-01-23T12:45:21;20.65;;;15.95;;
8044;SDS011;4065;48.754;9.982;2023-01-23T12:48:24;23.77;;;16.60;;
8044;SDS011;4065;48.754;9.982;2023-01-23T12:51:30;23.85;;;16.85;;
8044;SDS011;4065;48.754;9.982;2023-01-23T12:54:36;27.08;;;18.33;;
8044;SDS011;4065;48.754;9.982;2023-01-23T12:57:46;28.02;;;18.42;;
8044;SDS011;4065;48.754;9.982;2023-01-23T13:00:53;23.98;;;17.60;;
8044;SDS011;4065;48.754;9.982;2023-01-23T13:04:14;26.10;;;16.90;;
8044;SDS011;4065;48.754;9.982;2023-01-23T13:07:26;22.77;;;16.33;;
8044;SDS011;4065;48.754;9.982;2023-01-23T13:10:51;24.85;;;17.70;;
8044;SDS011;4065;48.754;9.982;2023-01-23T13:14:21;26.02;;;17.45;;
8044;SDS011;4065;48.754;9.982;2023-01-23T13:17:33;26.45;;;18.33;;
8044;SDS011;4065;48.754;9.982;2023-01-23T13:20:36;28.83;;;19.38;;
8044;SDS011;4065;48.754;9.982;2023-01-23T13:24:03;25.30;;;17.67;;
8044;SDS011;4065;48.754;9.982;2023-01-23T13:27:46;31.55;;;22.30;;
8044;SDS011;4065;48.754;9.982;2023-01-23T13:31:01;28.63;;;18.52;;
8044;SDS011;4065;48.754;9.982;2023-01-23T13:34:06;26.33;;;17.42;;
8044;SDS011;4065;48.754;9.982;2023-01-23T13:44:33;20.77;;;15.90;;
8044;SDS011;4065;48.754;9.982;2023-01-23T13:47:39;21.52;;;15.25;;
8044;SDS011;4065;48.754;9.982;2023-01-23T13:51:05;22.02;;;15.70;;
8044;SDS011;4065;48.754;9.982;2023-01-23T13:54:14;21.55;;;16.40;;
8044;SDS011;4065;48.754;9.982;2023-01-23T13:57:37;21.83;;;15.52;;
8044;SDS011;4065;48.754;9.982;2023-01-23T14:00:39;21.48;;;15.52;;
8044;SDS011;4065;48.754;9.982;2023-01-23T14:04:11;23.58;;;17.00;;
8044;SDS011;4065;48.754;9.982;2023-01-23T14:07:34;23.70;;;17.13;;
8044;SDS011;4065;48.754;9.982;2023-01-23T14:10:47;22.08;;;16.15;;
8044;SDS011;4065;48.754;9.982;2023-01-23T14:13:50;21.08;;;15.95;;
8044;SDS011;4065;48.754;9.982;2023-01-23T14:17:12;26.98;;;17.92;;
8044;SDS011;4065;48.754;9.982;2023-01-23T14:20:15;18.52;;;14.65;;
8044;SDS011;4065;48.754;9.982;2023-01-23T14:23:28;18.80;;;14.73;;
8044;SDS011;4065;48.754;9.982;2023-01-23T14:26:33;23.10;;;16.73;;
8044;SDS011;4065;48.754;9.982;2023-01-23T14:29:35;25.52;;;16.00;;
8044;SDS011;4065;48.754;9.982;2023-01-23T14:32:37;22.55;;;15.93;;
8044;SDS011;4065;48.754;9.982;2023-01-23T14:35:40;21.55;;;16.67;;
8044;SDS011;4065;48.754;9.982;2023-01-23T14:38:44;25.10;;;18.02;;
8044;SDS011;4065;48.754;9.982;2023-01-23T14:41:46;28.25;;;18.98;;
8044;SDS011;4065;48.754;9.982;2023-01-23T14:44:48;21.05;;;15.05;;
8044;SDS011;4065;48.754;9.982;2023-01-23T14:47:50;20.83;;;15.68;;
8044;SDS011;4065;48.754;9.982;2023-01-23T14:51:01;19.20;;;14.75;;
8044;SDS011;4065;48.754;9.982;2023-01-23T14:54:15;24.77;;;17.15;;
8044;SDS011;4065;48.754;9.982;2023-01-23T14:57:18;22.17;;;16.25;;
8044;SDS011;4065;48.754;9.982;2023-01-23T15:00:21;21.70;;;16.00;;
8044;SDS011;4065;48.754;9.982;2023-01-23T15:03:36;20.73;;;15.73;;
8044;SDS011;4065;48.754;9.982;2023-01-23T15:06:40;22.10;;;15.57;;
8044;SDS011;4065;48.754;9.982;2023-01-23T15:09:42;20.75;;;15.88;;
8044;SDS011;4065;48.754;9.982;2023-01-23T15:12:49;18.50;;;14.75;;
8044;SDS011;4065;48.754;9.982;2023-01-23T15:15:53;21.30;;;14.93;;
8044;SDS011;4065;48.754;9.982;2023-01-23T15:18:57;23.83;;;16.63;;
8044;SDS011;4065;48.754;9.982;2023-01-23T15:22:06;22.55;;;16.58;;
8044;SDS011;4065;48.754;9.982;2023-01-23T15:25:16;24.50;;;17.20;;
8044;SDS011;4065;48.754;9.982;2023-01-23T15:28:30;23.00;;;16.38;;
8044;SDS011;4065;48.754;9.982;2023-01-23T15:31:33;22.00;;;16.58;;
8044;SDS011;4065;48.754;9.982;2023-01-23T15:34:36;20.65;;;16.35;;
8044;SDS011;4065;48.754;9.982;2023-01-23T15:37:39;24.55;;;18.30;;
8044;SDS011;4065;48.754;9.982;2023-01-23T15:40:43;24.42;;;18.13;;
8044;SDS011;4065;48.754;9.982;2023-01-23T15:43:45;22.50;;;16.50;;
8044;SDS011;4065;48.754;9.982;2023-01-23T15:46:46;26.65;;;18.40;;
8044;SDS011;4065;48.754;9.982;2023-01-23T15:49:48;23.00;;;17.60;;
8044;SDS011;4065;48.754;9.982;2023-01-23T15:52:51;26.25;;;18.63;;
8044;SDS011;4065;48.754;9.982;2023-01-23T15:55:56;24.58;;;18.42;;
8044;SDS011;4065;48.754;9.982;2023-01-23T15:58:57;25.20;;;17.63;;
8044;SDS011;4065;48.754;9.982;2023-01-23T16:02:01;26.58;;;19.02;;
8044;SDS011;4065;48.754;9.982;2023-01-23T16:05:03;28.67;;;19.65;;
8044;SDS011;4065;48.754;9.982;2023-01-23T16:08:12;26.10;;;19.60;;
8044;SDS011;4065;48.754;9.982;2023-01-23T16:11:18;26.10;;;19.40;;
8044;SDS011;4065;48.754;9.982;2023-01-23T16:14:20;26.75;;;19.05;;
8044;SDS011;4065;48.754;9.982;2023-01-23T16:17:22;29.42;;;20.20;;
8044;SDS011;4065;48.754;9.982;2023-01-23T16:20:25;28.92;;;19.85;;
8044;SDS011;4065;48.754;9.982;2023-01-23T16:23:29;29.20;;;18.73;;
8044;SDS011;4065;48.754;9.982;2023-01-23T16:26:31;24.58;;;17.33;;
8044;SDS011;4065;48.754;9.982;2023-01-23T16:29:32;25.65;;;18.13;;
8044;SDS011;4065;48.754;9.982;2023-01-23T16:32:34;26.77;;;17.98;;
8044;SDS011;4065;48.754;9.982;2023-01-23T16:35:36;23.20;;;16.90;;
8044;SDS011;4065;48.754;9.982;2023-01-23T16:38:39;26.20;;;18.65;;
8044;SDS011;4065;48.754;9.982;2023-01-23T16:41:41;25.48;;;17.75;;
8044;SDS011;4065;48.754;9.982;2023-01-23T16:44:42;22.08;;;16.13;;
8044;SDS011;4065;48.754;9.982;2023-01-23T16:47:44;29.42;;;20.77;;
8044;SDS011;4065;48.754;9.982;2023-01-23T16:50:46;27.67;;;20.60;;
8044;SDS011;4065;48.754;9.982;2023-01-23T16:53:52;25.70;;;17.65;;
8044;SDS011;4065;48.754;9.982;2023-01-23T16:56:55;24.08;;;18.50;;
8044;SDS011;4065;48.754;9.982;2023-01-23T16:59:57;22.95;;;16.25;;
8044;SDS011;4065;48.754;9.982;2023-01-23T17:03:03;31.17;;;21.88;;
8044;SDS011;4065;48.754;9.982;2023-01-23T17:06:10;24.60;;;18.70;;
8044;SDS011;4065;48.754;9.982;2023-01-23T17:09:14;24.30;;;16.85;;
8044;SDS011;4065;48.754;9.982;2023-01-23T17:12:17;23.15;;;16.73;;
8044;SDS011;4065;48.754;9.982;2023-01-23T17:15:22;23.70;;;17.17;;
8044;SDS011;4065;48.754;9.982;2023-01-23T17:18:25;25.27;;;18.30;;
8044;SDS011;4065;48.754;9.982;2023-01-23T17:21:31;25.35;;;19.60;;
8044;SDS011;4065;48.754;9.982;2023-01-23T17:24:35;26.33;;;17.58;;
8044;SDS011;4065;48.754;9.982;2023-01-23T17:27:37;23.30;;;17.55;;
8044;SDS011;4065;48.754;9.982;2023-01-23T17:30:39;25.92;;;19.08;;
8044;SDS011;4065;48.754;9.982;2023-01-23T17:33:41;24.58;;;16.92;;
8044;SDS011;4065;48.754;9.982;2023-01-23T17:36:42;25.75;;;18.38;;
8044;SDS011;4065;48.754;9.982;2023-01-23T17:39:45;29.27;;;23.20;;
8044;SDS011;4065;48.754;9.982;2023-01-23T17:42:47;28.05;;;20.50;;
8044;SDS011;4065;48.754;9.982;2023-01-23T17:45:53;26.33;;;18.30;;
8044;SDS011;4065;48.754;9.982;2023-01-23T17:48:55;26.60;;;19.33;;
8044;SDS011;4065;48.754;9.982;2023-01-23T17:51:57;28.38;;;20.10;;
8044;SDS011;4065;48.754;9.982;2023-01-23T17:55:01;29.40;;;20.40;;
8044;SDS011;4065;48.754;9.982;2023-01-23T17:58:02;24.35;;;17.85;;
8044;SDS011;4065;48.754;9.982;2023-01-23T18:01:04;26.58;;;20.23;;
8044;SDS011;4065;48.754;9.982;2023-01-23T18:04:10;29.60;;;20.55;;
8044;SDS011;4065;48.754;9.982;2023-01-23T18:07:15;28.27;;;20.50;;
8044;SDS011;4065;48.754;9.982;2023-01-23T18:10:19;27.65;;;19.45;;
8044;SDS011;4065;48.754;9.982;2023-01-23T18:13:24;24.73;;;18.50;;
8044;SDS011;4065;48.754;9.982;2023-01-23T18:16:31;28.98;;;19.98;;
8044;SDS011;4065;48.754;9.982;2023-01-23T18:19:36;33.97;;;26.83;;
8044;SDS011;4065;48.754;9.982;2023-01-23T18:22:38;34.30;;;23.45;;
8044;SDS011;4065;48.754;9.982;2023-01-23T18:25:41;29.27;;;20.77;;
8044;SDS011;4065;48.754;9.982;2023-01-23T18:28:46;28.40;;;19.92;;
8044;SDS011;4065;48.754;9.982;2023-01-23T18:32:02;29.95;;;19.70;;
8044;SDS011;4065;48.754;9.982;2023-01-23T18:35:17;34.33;;;22.33;;
8044;SDS011;4065;48.754;9.982;2023-01-23T18:38:26;33.30;;;22.00;;
8044;SDS011;4065;48.754;9.982;2023-01-23T18:41:36;28.02;;;21.55;;
8044;SDS011;4065;48.754;9.982;2023-01-23T18:44:42;31.20;;;22.55;;